Latest METARs, TAFs and NOTAMs for SEGU


---------------------------------------------------------------------------
	(OBSERVATIONS)
SEGU 241400Z 23006KT 9999 SCT020 SCT033 BKN100 26/22 Q1012 NOSIG
    RMK A2989=
SEGU 241300Z 24006KT 9999 FEW020 BKN030 OVC100 25/22 Q1011 NOSIG
    RMK A2987=
SEGU 241200Z 22006KT 9999 FEW013 BKN023 BKN100 25/22 Q1011 NOSIG
    RMK A2985=
---------------------------------------------------------------------------
	(TERMINAL AREA FORECAST)
SEGU 240920Z 2412/2512 05004KT 9999 SCT023 BKN100
    FM241800 12005KT 9999 SCT026 SCT100
    FM250000 20010KT 9999 FEW030 SCT100
    FM250600 24006KT 9999 SCT023 BKN100 TX31/2420Z TN23/2510Z=
---------------------------------------------------------------------------
	(NOTAMS)


SEGU A0055/09 APN NORTE CLSD POR INCIDENTE DE ACFT 27 JAN 05:30
    UNTIL 27 JAN 18:00 ESTIMATED

SEGU A0380/17 RWY CLSD DUE TO MAINT, AUTH OPR HEL. 29 JUL 13:00
    2017 UNTIL 29 JUL 20:00 2017. CREATED: 10 MAY 14:55 2017

SEGU A0403/17 ASCENT OF FREE BALLOON WILL TAKE PLACE FM STN INOCAR
    COORD 021618.26S 0795414.34W VSP 10 A 13FT/SEC HGT 83000FT.
    CTN. SFC - UNL, MON-FRI 1015-1215, 18 MAY 10:15 2017 UNTIL
    16 AUG 12:15 2017. CREATED: 17 MAY 16:04 2017

SEGU A0404/17 MOV AREA WIP SUBJ TFC. CTN. 17 MAY 21:01 2017 UNTIL
    18 AUG 04:59 2017. CREATED: 17 MAY 21:02 2017

SEGU A0405/17 WIP IN GREEN AREAS MOV AREA, SUBJ TFC. CTN. 17
    MAY 21:03 2017 UNTIL 18 AUG 04:59 2017. CREATED: 17 MAY 21:03
    2017

SEGU A0422/17 EN FRASEOLOGIA: REMANENTE DE PISTA ES: MIL NOVECIENTOS
    TREINTA Y UN METROS IN PHRASEOLOGY: RWY DISTANCE REMAINING
    IS: ONE THOUSAND NINE HUNDRED THIRTY-ONE METERS. REF AIP
    PAG AD 2 SEGU 11.2, NUMERAL 3. 25 MAY 00:00 2017 UNTIL PERM.
    CREATED: 25 MAY 00:15 2017

SEGU A0502/17 RWY 03/21 CLSD DUE TO WIP. AUTH OPS HEL. 1210-1310
    1625-1705, 25 JUN 12:10 2017 UNTIL 25 JUN 17:05 2017. CREATED:
    22 JUN 19:12 2017

SEGU A1463/06 COMBUSTIBLE JET A-1 RESTRINGIDO 20 POR CIENTO 26
    DEC 20:45 2006 UNTIL 04 JAN 23:00 ESTIMATED

SEGU V0316/17 [US DOD PROCEDURAL NOTAM] INSTRUMENT APPROACH PROCEDURE
    NOT AUTHORIZED CSA FLIP VOL-2 DESCENT 2 VOR/DME GYV RWY 21.
    23 JUN 00:01 2017 UNTIL 17 AUG 23:59 2017. CREATED: 22 JUN
    18:27 2017

---------------------------------------------------------------------------